Aérodrome :
LOGIN :

S'inscrire | Disclaimer

   EN    FR    IT 

 










Légende :    VFR   VFR Marginal   IFR   IFR Intensif   IFR Très Intensif
Visi : 
Plafond : 
>= 8 km
>= 3000ft
5 à 8 km
1000 à 3000 ft
1500m à 5 km
500 à 1000 ft
800 à 1500m
200 à 500 ft
< 800m
< 200 ft
Symboles :   Orages  Brouillard  Fortes neiges  Fortes précipitations  Vent > 20 kt
SIGMETs :   Divers  Orages  Givrage  Turbulence  Onde Orograph.  Cendres Volcan.







- Altitude de l'aérodrome : 124 ft
- Code IATA : AVN
- Voir les cartes d'approche


LFMV - Avignon Caumont

DERNIER METAR :
  • 201830Z AUTO 20003KT 9999 FEW062 22/14 Q1019 NOSIG

METARs EXPIRÉS :
  • 201800Z AUTO 24004KT 9999 BKN064 24/15 Q1019 NOSIG
  • 201730Z AUTO 25007KT 9999 FEW068 25/15 Q1019
  • 201700Z AUTO 25007KT CAVOK 25/16 Q1019
  • 201630Z AUTO 25009KT CAVOK 26/16 Q1018
  • 201600Z AUTO 25010KT CAVOK 27/16 Q1019

TAF AMD TAF LFMV
Valide du 20 à 17h jusqu'au 21 à 15h UTC


201747Z 2017/2115 VRB05KT CAVOK
BECMG 2102/2104 14010KT
TEMPO 2108/2115 SHRA SCT030CB BKN040
PROB40
TEMPO 2108/2115 VRB15G30KT 3000 TSRA
ATIS : +33 4 90 84 32 84
Pas de NOTAMs connus pour ce terrain.



MET'MAP, la Météo Aéronautique d'un coup d'oeil ! - Copyright ORBIFLY Décembre 2007 - Disclaimer

ORBIFLY MET'MAP TEAM :

Programmation & Développement : Alexandra Zaïnal
Conception & Développement : Baudouin d'Aumeries
Co-Programmation & Développement : Marc-Olivier Méhu
Soutien technique & logistique : Manuel Goepfert

Contact : metmap@orbifly.com




SOURCES & CREDITS :

   NOAA